Time;durP1;ratioP1;P1;durP2;ratioP2;P2;SDS_P1;SDS_P2;PMS_P1;PMS_P2;Temp;Humidity;BMP_temperature;BMP_pressure;BME280_temperature;BME280_humidity;BME280_pressure;Samples;Min_cycle;Max_cycle;Signal;HPM_P1;HPM_P2
2023/08/14 00:00:09;;;;;;;7.60;3.25;;;;;;;;;;7392650;19;20536;-70
2023/08/14 00:02:34;;;;;;;7.60;3.60;;;;;;;;;;7369819;19;20283;-72
2023/08/14 00:05:00;;;;;;;5.85;3.13;;;;;;;;;;7368617;19;20010;-71
2023/08/14 00:07:25;;;;;;;7.80;3.70;;;;;;;;;;7370553;19;20104;-72
2023/08/14 00:09:50;;;;;;;7.70;3.40;;;;;;;;;;7368269;19;20009;-72
2023/08/14 00:12:16;;;;;;;9.05;3.55;;;;;;;;;;7392406;19;20066;-71
2023/08/14 00:14:41;;;;;;;7.68;3.33;;;;;;;;;;7369645;19;20010;-71
2023/08/14 00:17:06;;;;;;;7.68;3.30;;;;;;;;;;7375095;19;20074;-71
2023/08/14 00:19:32;;;;;;;8.95;3.47;;;;;;;;;;7380257;19;20086;-71
2023/08/14 00:21:57;;;;;;;8.98;3.75;;;;;;;;;;7377456;19;20185;-72
2023/08/14 00:24:22;;;;;;;10.68;3.25;;;;;;;;;;7391794;19;20015;-72
2023/08/14 00:26:48;;;;;;;6.82;3.22;;;;;;;;;;7369071;19;20041;-72
2023/08/14 00:29:13;;;;;;;8.82;3.75;;;;;;;;;;7368938;19;20007;-71
2023/08/14 00:31:38;;;;;;;6.45;3.25;;;;;;;;;;7370387;19;20006;-71
2023/08/14 00:34:03;;;;;;;7.60;3.42;;;;;;;;;;7366835;19;20006;-72
2023/08/14 00:36:29;;;;;;;6.55;3.40;;;;;;;;;;7391504;19;20005;-72
2023/08/14 00:38:54;;;;;;;6.30;3.25;;;;;;;;;;7368815;19;20588;-71
2023/08/14 00:41:20;;;;;;;7.57;3.65;;;;;;;;;;7369055;19;20379;-72
2023/08/14 00:43:46;;;;;;;6.70;3.47;;;;;;;;;;7367895;19;20007;-72
2023/08/14 00:46:12;;;;;;;6.53;3.47;;;;;;;;;;7365673;19;20033;-71
2023/08/14 00:48:37;;;;;;;9.07;3.50;;;;;;;;;;7388193;19;20448;-72
2023/08/14 00:51:03;;;;;;;6.13;3.30;;;;;;;;;;7365791;19;20094;-70
2023/08/14 00:53:29;;;;;;;7.10;3.25;;;;;;;;;;7367420;19;20312;-71
2023/08/14 00:55:55;;;;;;;8.90;3.35;;;;;;;;;;7365692;19;20031;-72
2023/08/14 00:58:22;;;;;;;9.75;3.40;;;;;;;;;;7365917;19;20003;-71
2023/08/14 01:00:47;;;;;;;6.93;3.40;;;;;;;;;;7365930;19;20339;-72
2023/08/14 01:03:13;;;;;;;13.48;3.83;;;;;;;;;;7390261;19;20026;-72
2023/08/14 01:05:39;;;;;;;6.03;3.28;;;;;;;;;;7367404;19;20102;-72
2023/08/14 01:08:04;;;;;;;7.45;3.17;;;;;;;;;;7368666;19;20019;-71
2023/08/14 01:10:42;;;;;;;6.13;3.60;;;;;;;;;;7366908;19;20003;-72
2023/08/14 01:13:25;;;;;;;8.32;3.63;;;;;;;;;;7369057;19;20062;-72
2023/08/14 01:15:55;;;;;;;6.57;3.28;;;;;;;;;;7368109;19;20095;-72
2023/08/14 01:18:24;;;;;;;6.53;3.33;;;;;;;;;;7389068;19;20013;-71
2023/08/14 01:21:08;;;;;;;6.60;3.35;;;;;;;;;;7367339;19;20009;-72
2023/08/14 01:23:40;;;;;;;6.78;3.45;;;;;;;;;;7367362;19;20006;-72
2023/08/14 01:26:06;;;;;;;5.88;3.08;;;;;;;;;;7367732;19;20006;-71
2023/08/14 01:28:32;;;;;;;5.95;3.25;;;;;;;;;;7366602;19;20006;-71
2023/08/14 01:30:58;;;;;;;7.85;3.20;;;;;;;;;;7368132;19;20524;-71
2023/08/14 01:33:23;;;;;;;6.03;3.42;;;;;;;;;;7389457;19;20023;-71
2023/08/14 01:35:55;;;;;;;6.07;3.00;;;;;;;;;;7366781;19;20002;-71
2023/08/14 01:38:34;;;;;;;6.22;3.22;;;;;;;;;;7367907;19;20006;-71
2023/08/14 01:41:20;;;;;;;10.30;3.60;;;;;;;;;;7367335;19;20012;-71
2023/08/14 01:43:49;;;;;;;7.18;3.30;;;;;;;;;;7366336;19;20011;-71
2023/08/14 01:46:15;;;;;;;8.55;3.33;;;;;;;;;;7369785;19;20007;-71
2023/08/14 01:48:41;;;;;;;6.88;3.30;;;;;;;;;;7374796;19;20006;-71
2023/08/14 01:51:09;;;;;;;9.02;3.30;;;;;;;;;;7396085;19;20007;-71
2023/08/14 01:53:36;;;;;;;6.53;3.33;;;;;;;;;;7373492;19;20364;-72
2023/08/14 01:56:01;;;;;;;7.63;3.67;;;;;;;;;;7372699;19;20023;-72
2023/08/14 01:58:27;;;;;;;8.52;3.35;;;;;;;;;;7373413;19;20023;-72
2023/08/14 02:00:52;;;;;;;6.63;3.10;;;;;;;;;;7374036;19;20023;-71
2023/08/14 02:03:17;;;;;;;8.40;3.53;;;;;;;;;;7395421;19;20033;-72
2023/08/14 02:05:43;;;;;;;6.22;3.17;;;;;;;;;;7373945;19;20014;-72
2023/08/14 02:08:08;;;;;;;9.75;3.30;;;;;;;;;;7373960;19;20039;-72
2023/08/14 02:10:33;;;;;;;8.70;3.58;;;;;;;;;;7369651;19;20011;-72
2023/08/14 02:12:59;;;;;;;10.77;3.33;;;;;;;;;;7373109;19;20401;-71
2023/08/14 02:15:24;;;;;;;9.10;3.47;;;;;;;;;;7389477;19;20003;-74
2023/08/14 02:17:49;;;;;;;6.68;2.95;;;;;;;;;;7370601;19;20406;-72
2023/08/14 02:20:15;;;;;;;5.70;3.08;;;;;;;;;;7370685;19;20010;-71
2023/08/14 02:22:40;;;;;;;7.15;3.42;;;;;;;;;;7370556;19;20014;-72
2023/08/14 02:25:06;;;;;;;8.23;3.95;;;;;;;;;;7367754;19;20010;-71
2023/08/14 02:27:31;;;;;;;8.82;4.03;;;;;;;;;;7393136;19;20038;-72
2023/08/14 02:29:56;;;;;;;8.10;4.00;;;;;;;;;;7372210;19;20010;-72
2023/08/14 02:32:22;;;;;;;9.10;3.50;;;;;;;;;;7371944;19;20086;-71
2023/08/14 02:34:49;;;;;;;10.98;3.67;;;;;;;;;;7372223;19;20014;-71
2023/08/14 02:37:16;;;;;;;8.30;4.07;;;;;;;;;;7373822;19;20045;-71
2023/08/14 02:39:42;;;;;;;8.10;3.42;;;;;;;;;;7373224;19;20021;-72
2023/08/14 02:42:07;;;;;;;7.88;3.58;;;;;;;;;;7395844;19;20006;-70
2023/08/14 02:44:33;;;;;;;8.35;3.72;;;;;;;;;;7371461;19;20015;-72
2023/08/14 02:46:59;;;;;;;8.38;4.18;;;;;;;;;;7373113;19;20014;-71
2023/08/14 02:49:25;;;;;;;9.40;4.30;;;;;;;;;;7372249;19;20010;-71
2023/08/14 02:51:50;;;;;;;8.60;3.72;;;;;;;;;;7373040;19;20007;-70
2023/08/14 02:54:16;;;;;;;7.22;3.15;;;;;;;;;;7392761;19;20357;-72
2023/08/14 02:56:41;;;;;;;8.00;3.47;;;;;;;;;;7372091;19;20006;-71
2023/08/14 02:59:06;;;;;;;7.43;3.97;;;;;;;;;;7372397;19;20357;-71
2023/08/14 03:01:32;;;;;;;8.20;3.85;;;;;;;;;;7371919;19;20015;-71
2023/08/14 03:03:57;;;;;;;7.05;3.58;;;;;;;;;;7371762;19;20011;-72
2023/08/14 03:06:22;;;;;;;7.57;3.78;;;;;;;;;;7394123;19;20017;-71
2023/08/14 03:08:49;;;;;;;9.85;3.60;;;;;;;;;;7371260;19;20859;-71
2023/08/14 03:11:15;;;;;;;7.15;3.47;;;;;;;;;;7372965;19;20539;-70
2023/08/14 03:13:40;;;;;;;7.28;3.30;;;;;;;;;;7371029;19;20007;-72
2023/08/14 03:16:06;;;;;;;10.27;3.78;;;;;;;;;;7371645;19;20077;-71
2023/08/14 03:18:31;;;;;;;5.82;3.63;;;;;;;;;;7393235;19;20003;-72
2023/08/14 03:20:56;;;;;;;8.27;3.90;;;;;;;;;;7371802;19;20010;-71
2023/08/14 03:23:22;;;;;;;6.65;3.50;;;;;;;;;;7370819;19;20015;-70
2023/08/14 03:25:47;;;;;;;8.55;3.55;;;;;;;;;;7370707;19;20017;-71
2023/08/14 03:28:12;;;;;;;7.50;3.55;;;;;;;;;;7369663;19;20528;-70
2023/08/14 03:30:43;;;;;;;10.07;3.50;;;;;;;;;;7387242;19;20022;-71
2023/08/14 03:33:09;;;;;;;8.70;3.85;;;;;;;;;;7390480;19;20040;-71
2023/08/14 03:35:34;;;;;;;6.07;3.60;;;;;;;;;;7367438;19;20011;-71
2023/08/14 03:38:00;;;;;;;8.35;3.30;;;;;;;;;;7368037;19;20013;-71
2023/08/14 03:40:25;;;;;;;9.43;3.92;;;;;;;;;;7367665;19;20015;-71
2023/08/14 03:42:50;;;;;;;7.57;3.53;;;;;;;;;;7368624;19;20365;-70
2023/08/14 03:45:16;;;;;;;6.50;3.50;;;;;;;;;;7387517;19;20006;-71
2023/08/14 03:47:41;;;;;;;5.63;3.25;;;;;;;;;;7370121;19;20006;-71
2023/08/14 03:50:07;;;;;;;9.40;3.60;;;;;;;;;;7370606;19;19999;-71
2023/08/14 03:52:32;;;;;;;10.48;3.88;;;;;;;;;;7371152;19;20066;-71
2023/08/14 03:54:58;;;;;;;5.65;3.30;;;;;;;;;;7368620;19;20444;-71
2023/08/14 03:57:23;;;;;;;8.50;3.40;;;;;;;;;;7390991;19;20006;-72
2023/08/14 03:59:48;;;;;;;7.95;4.00;;;;;;;;;;7369699;19;20045;-70
2023/08/14 04:02:14;;;;;;;8.60;3.97;;;;;;;;;;7367181;19;20018;-72
2023/08/14 04:04:39;;;;;;;11.02;3.65;;;;;;;;;;7368747;19;20007;-72
2023/08/14 04:07:04;;;;;;;10.07;4.05;;;;;;;;;;7370002;19;20011;-70
2023/08/14 04:09:30;;;;;;;9.40;3.88;;;;;;;;;;7390341;19;20018;-71
2023/08/14 04:11:55;;;;;;;7.75;3.83;;;;;;;;;;7382111;19;20018;-71
2023/08/14 04:14:21;;;;;;;9.57;4.22;;;;;;;;;;7384402;19;20013;-71
2023/08/14 04:16:46;;;;;;;14.98;4.03;;;;;;;;;;7381528;19;20046;-71
2023/08/14 04:19:18;;;;;;;9.00;4.25;;;;;;;;;;7369900;19;20484;-71
2023/08/14 04:21:44;;;;;;;9.00;3.97;;;;;;;;;;7369619;19;20017;-71
2023/08/14 04:24:10;;;;;;;10.48;3.65;;;;;;;;;;7387778;19;19999;-71
2023/08/14 04:26:39;;;;;;;12.13;4.20;;;;;;;;;;7368762;19;20055;-71
2023/08/14 04:29:06;;;;;;;14.27;4.07;;;;;;;;;;7367550;19;20388;-71
2023/08/14 04:31:33;;;;;;;8.30;3.63;;;;;;;;;;7367000;19;20123;-71
2023/08/14 04:33:59;;;;;;;11.50;4.30;;;;;;;;;;7367280;19;20438;-71
2023/08/14 04:36:24;;;;;;;12.63;3.75;;;;;;;;;;7388395;19;20027;-71
2023/08/14 04:38:49;;;;;;;12.50;4.00;;;;;;;;;;7365280;19;20006;-71
2023/08/14 04:41:15;;;;;;;13.38;5.55;;;;;;;;;;7368755;19;20788;-72
2023/08/14 04:43:40;;;;;;;8.10;4.18;;;;;;;;;;7368455;19;20010;-71
2023/08/14 04:46:10;;;;;;;7.50;3.75;;;;;;;;;;7369313;19;20006;-71
2023/08/14 04:48:35;;;;;;;9.07;3.93;;;;;;;;;;7391000;19;20003;-71
2023/08/14 04:51:01;;;;;;;10.63;3.65;;;;;;;;;;7367372;19;20627;-71
2023/08/14 04:53:26;;;;;;;8.07;3.50;;;;;;;;;;7368737;19;20110;-71
2023/08/14 04:55:51;;;;;;;8.82;4.05;;;;;;;;;;7361225;19;20031;-71
2023/08/14 04:58:17;;;;;;;8.70;4.32;;;;;;;;;;7362434;19;20022;-71
2023/08/14 05:00:42;;;;;;;9.60;3.40;;;;;;;;;;7368656;19;20002;-70
2023/08/14 05:03:07;;;;;;;6.13;3.20;;;;;;;;;;7390037;19;19998;-70
2023/08/14 05:05:32;;;;;;;7.72;3.85;;;;;;;;;;7364303;19;20010;-71
2023/08/14 05:07:58;;;;;;;8.45;3.45;;;;;;;;;;7368372;19;20407;-71
2023/08/14 05:10:23;;;;;;;8.40;3.22;;;;;;;;;;7367188;19;20013;-71
2023/08/14 05:12:48;;;;;;;9.68;3.50;;;;;;;;;;7368183;19;20003;-71
2023/08/14 05:15:14;;;;;;;9.55;3.65;;;;;;;;;;7387132;19;20624;-71
2023/08/14 05:17:39;;;;;;;7.13;3.28;;;;;;;;;;7366016;19;20025;-71
2023/08/14 05:20:05;;;;;;;6.55;3.22;;;;;;;;;;7366041;19;20010;-71
2023/08/14 05:22:31;;;;;;;7.70;3.50;;;;;;;;;;7367810;19;20015;-72
2023/08/14 05:24:56;;;;;;;8.88;3.33;;;;;;;;;;7366604;19;20009;-71
2023/08/14 05:27:21;;;;;;;6.25;3.42;;;;;;;;;;7389967;19;20002;-72
2023/08/14 05:29:47;;;;;;;6.97;3.70;;;;;;;;;;7366575;19;20595;-72
2023/08/14 05:32:13;;;;;;;6.97;3.60;;;;;;;;;;7366583;19;20014;-71
2023/08/14 05:34:38;;;;;;;9.25;3.67;;;;;;;;;;7366869;19;20027;-71
2023/08/14 05:37:03;;;;;;;8.93;3.47;;;;;;;;;;7367882;19;20014;-71
2023/08/14 05:39:28;;;;;;;9.80;3.63;;;;;;;;;;7389865;19;20013;-71
2023/08/14 05:41:54;;;;;;;7.15;3.10;;;;;;;;;;7367568;19;20006;-71
2023/08/14 05:44:19;;;;;;;9.13;3.20;;;;;;;;;;7366499;19;20017;-70
2023/08/14 05:46:44;;;;;;;8.13;3.13;;;;;;;;;;7365614;19;20039;-70
2023/08/14 05:49:10;;;;;;;8.75;3.92;;;;;;;;;;7364819;19;20007;-71
2023/08/14 05:51:35;;;;;;;6.80;3.50;;;;;;;;;;7387869;19;20367;-71
2023/08/14 05:54:00;;;;;;;10.35;3.47;;;;;;;;;;7362600;19;20035;-71
2023/08/14 05:56:26;;;;;;;7.40;3.00;;;;;;;;;;7365029;19;20430;-70
2023/08/14 05:58:51;;;;;;;8.27;3.53;;;;;;;;;;7363773;19;20093;-71
2023/08/14 06:01:16;;;;;;;9.02;3.60;;;;;;;;;;7363991;19;20508;-71
2023/08/14 06:03:42;;;;;;;12.50;3.60;;;;;;;;;;7365871;19;20628;-71
2023/08/14 06:06:08;;;;;;;6.70;3.60;;;;;;;;;;7388458;19;20015;-70
2023/08/14 06:08:34;;;;;;;8.43;3.50;;;;;;;;;;7367354;19;20018;-71
2023/08/14 06:11:02;;;;;;;11.80;3.28;;;;;;;;;;7366235;19;20011;-71
2023/08/14 06:13:27;;;;;;;9.18;3.90;;;;;;;;;;7365651;19;20584;-70
2023/08/14 06:15:52;;;;;;;7.43;3.58;;;;;;;;;;7366756;19;20010;-71
2023/08/14 06:18:18;;;;;;;9.35;3.50;;;;;;;;;;7387793;19;20452;-72
2023/08/14 06:20:43;;;;;;;11.30;3.97;;;;;;;;;;7366497;19;20014;-71
2023/08/14 06:23:08;;;;;;;12.20;3.85;;;;;;;;;;7366140;19;20013;-72
2023/08/14 06:25:34;;;;;;;8.88;3.65;;;;;;;;;;7365295;19;20092;-71
2023/08/14 06:27:59;;;;;;;14.30;3.88;;;;;;;;;;7366467;19;20029;-70
2023/08/14 06:30:25;;;;;;;8.05;3.45;;;;;;;;;;7386866;19;20484;-71
2023/08/14 06:32:50;;;;;;;11.30;3.83;;;;;;;;;;7369344;19;20010;-71
2023/08/14 06:35:17;;;;;;;8.52;3.40;;;;;;;;;;7372191;19;20010;-71
2023/08/14 06:37:42;;;;;;;7.70;3.80;;;;;;;;;;7372611;19;20022;-71
2023/08/14 06:40:08;;;;;;;12.75;3.63;;;;;;;;;;7373514;19;20011;-72
2023/08/14 06:42:33;;;;;;;5.55;3.33;;;;;;;;;;7396075;19;20006;-71
2023/08/14 06:44:59;;;;;;;12.88;3.33;;;;;;;;;;7369638;19;20399;-71
2023/08/14 06:47:24;;;;;;;11.82;4.15;;;;;;;;;;7373315;19;20018;-71
2023/08/14 06:49:49;;;;;;;9.20;3.22;;;;;;;;;;7372271;19;20015;-71
2023/08/14 06:52:15;;;;;;;9.73;3.30;;;;;;;;;;7372684;19;20018;-71
2023/08/14 06:54:40;;;;;;;11.00;3.20;;;;;;;;;;7371002;19;20027;-71
2023/08/14 06:57:07;;;;;;;9.63;3.45;;;;;;;;;;7395583;19;20031;-71
2023/08/14 06:59:33;;;;;;;9.73;3.20;;;;;;;;;;7370694;19;20035;-71
2023/08/14 07:01:58;;;;;;;12.25;3.35;;;;;;;;;;7371589;19;20011;-71
2023/08/14 07:04:23;;;;;;;9.40;3.25;;;;;;;;;;7371441;19;20007;-71
2023/08/14 07:06:49;;;;;;;9.02;2.92;;;;;;;;;;7370319;19;20003;-71
2023/08/14 07:09:16;;;;;;;11.02;3.13;;;;;;;;;;7391189;19;20002;-71
2023/08/14 07:11:42;;;;;;;11.20;3.10;;;;;;;;;;7371325;19;20027;-71
2023/08/14 07:14:07;;;;;;;9.40;3.08;;;;;;;;;;7371179;19;20007;-72
2023/08/14 07:16:33;;;;;;;10.02;3.13;;;;;;;;;;7372851;19;20105;-72
2023/08/14 07:18:58;;;;;;;10.13;2.78;;;;;;;;;;7373143;19;20000;-72
2023/08/14 07:21:24;;;;;;;6.32;2.60;;;;;;;;;;7393752;19;20006;-71
2023/08/14 07:23:49;;;;;;;5.03;2.50;;;;;;;;;;7368776;19;20023;-71
2023/08/14 07:26:15;;;;;;;6.40;2.70;;;;;;;;;;7372385;19;20011;-70
2023/08/14 07:28:43;;;;;;;5.00;2.33;;;;;;;;;;7372268;19;20045;-71
2023/08/14 07:31:09;;;;;;;8.07;2.95;;;;;;;;;;7368362;19;20018;-71
2023/08/14 07:33:35;;;;;;;8.32;2.50;;;;;;;;;;7392863;19;20013;-71
2023/08/14 07:36:02;;;;;;;7.07;2.70;;;;;;;;;;7370407;19;20025;-70
2023/08/14 07:38:27;;;;;;;5.30;2.53;;;;;;;;;;7371579;19;20090;-74
2023/08/14 07:40:54;;;;;;;6.30;2.90;;;;;;;;;;7367585;19;20010;-73
2023/08/14 07:43:20;;;;;;;6.00;2.70;;;;;;;;;;7369277;19;20035;-73
2023/08/14 07:45:47;;;;;;;5.20;2.50;;;;;;;;;;7370364;19;20027;-74
2023/08/14 07:48:13;;;;;;;8.98;2.80;;;;;;;;;;7392875;19;20025;-73
2023/08/14 07:50:38;;;;;;;6.88;2.45;;;;;;;;;;7368175;19;20468;-74
2023/08/14 07:53:03;;;;;;;12.90;2.65;;;;;;;;;;7370397;19;20045;-72
2023/08/14 07:55:29;;;;;;;7.93;2.55;;;;;;;;;;7369965;19;20410;-72
2023/08/14 07:57:54;;;;;;;9.63;2.55;;;;;;;;;;7372178;19;19998;-72
2023/08/14 08:00:20;;;;;;;4.30;2.55;;;;;;;;;;7392016;19;20518;-68
2023/08/14 08:02:45;;;;;;;7.18;2.60;;;;;;;;;;7369341;19;20014;-69
2023/08/14 08:05:11;;;;;;;6.72;2.47;;;;;;;;;;7369964;19;20194;-73
2023/08/14 08:07:36;;;;;;;6.03;2.55;;;;;;;;;;7370319;19;20030;-73
2023/08/14 08:10:02;;;;;;;7.55;2.50;;;;;;;;;;7371132;19;20027;-65
2023/08/14 08:12:27;;;;;;;6.13;2.50;;;;;;;;;;7393086;19;20010;-67
2023/08/14 08:14:53;;;;;;;7.72;2.38;;;;;;;;;;7368226;19;20010;-65
2023/08/14 08:17:18;;;;;;;9.30;3.05;;;;;;;;;;7370331;19;20007;-65
2023/08/14 08:19:45;;;;;;;4.75;2.45;;;;;;;;;;7370281;19;20461;-66
2023/08/14 08:22:11;;;;;;;6.53;2.33;;;;;;;;;;7367335;19;20453;-73
2023/08/14 08:24:36;;;;;;;7.45;2.45;;;;;;;;;;7388414;19;20018;-72
2023/08/14 08:27:01;;;;;;;7.45;2.58;;;;;;;;;;7367094;19;20014;-73
2023/08/14 08:29:27;;;;;;;7.63;2.70;;;;;;;;;;7366849;19;20010;-64
2023/08/14 08:31:52;;;;;;;5.05;2.40;;;;;;;;;;7368198;19;20387;-68
2023/08/14 08:34:17;;;;;;;6.97;2.67;;;;;;;;;;7368335;19;20056;-73
2023/08/14 08:36:43;;;;;;;6.95;2.80;;;;;;;;;;7369126;19;20492;-68
2023/08/14 08:39:08;;;;;;;6.20;2.80;;;;;;;;;;7391449;19;20553;-68
2023/08/14 08:41:40;;;;;;;5.70;2.63;;;;;;;;;;7368974;19;20002;-74
2023/08/14 08:44:09;;;;;;;7.55;3.08;;;;;;;;;;7368900;19;20013;-69
2023/08/14 08:46:37;;;;;;;6.90;2.50;;;;;;;;;;7370216;19;20010;-72
2023/08/14 08:49:03;;;;;;;6.65;3.10;;;;;;;;;;7369242;19;20010;-73
2023/08/14 08:51:30;;;;;;;8.63;2.80;;;;;;;;;;7392123;19;20006;-71
2023/08/14 08:53:55;;;;;;;5.78;2.53;;;;;;;;;;7367884;19;20406;-71
2023/08/14 08:56:21;;;;;;;6.95;2.55;;;;;;;;;;7367229;19;20014;-64
2023/08/14 08:58:47;;;;;;;6.35;2.72;;;;;;;;;;7369458;19;20421;-63
2023/08/14 09:01:13;;;;;;;5.53;2.78;;;;;;;;;;7369444;19;20018;-63
2023/08/14 09:03:38;;;;;;;10.40;2.92;;;;;;;;;;7384445;19;20010;-68
2023/08/14 09:06:03;;;;;;;7.05;2.65;;;;;;;;;;7377387;19;20006;-68
2023/08/14 09:08:29;;;;;;;5.75;2.90;;;;;;;;;;7368891;19;20003;-68
2023/08/14 09:10:54;;;;;;;6.88;3.00;;;;;;;;;;7368090;19;20010;-69
2023/08/14 09:13:20;;;;;;;7.93;3.00;;;;;;;;;;7368320;19;20006;-69
2023/08/14 09:15:45;;;;;;;8.73;2.95;;;;;;;;;;7367748;19;20020;-69
2023/08/14 09:18:11;;;;;;;8.68;2.92;;;;;;;;;;7390874;19;20027;-68
2023/08/14 09:20:38;;;;;;;7.72;3.10;;;;;;;;;;7366889;19;20360;-67
2023/08/14 09:23:03;;;;;;;7.65;3.13;;;;;;;;;;7367961;19;20002;-68
2023/08/14 09:25:29;;;;;;;17.52;3.10;;;;;;;;;;7366911;19;19999;-67
2023/08/14 09:27:57;;;;;;;6.60;2.72;;;;;;;;;;7369141;19;19995;-68
2023/08/14 09:30:29;;;;;;;7.68;2.65;;;;;;;;;;7389357;19;20007;-67
2023/08/14 09:32:55;;;;;;;6.07;2.30;;;;;;;;;;7367876;19;20092;-67
2023/08/14 09:35:20;;;;;;;8.25;2.45;;;;;;;;;;7366230;19;20002;-67
2023/08/14 09:37:48;;;;;;;5.55;2.70;;;;;;;;;;7368020;19;20035;-68
2023/08/14 09:40:16;;;;;;;5.38;2.50;;;;;;;;;;7367701;19;20043;-67
2023/08/14 09:42:49;;;;;;;7.30;2.90;;;;;;;;;;7367350;19;20087;-68
2023/08/14 09:45:18;;;;;;;11.98;3.30;;;;;;;;;;7387163;19;20477;-68
2023/08/14 09:47:44;;;;;;;4.57;2.70;;;;;;;;;;7365015;19;20015;-68
2023/08/14 09:50:12;;;;;;;9.07;3.38;;;;;;;;;;7365702;19;20026;-69
2023/08/14 09:52:39;;;;;;;5.50;2.63;;;;;;;;;;7367270;19;20082;-69
2023/08/14 09:55:04;;;;;;;6.03;3.67;;;;;;;;;;7364338;19;20018;-68
2023/08/14 09:57:30;;;;;;;7.03;3.03;;;;;;;;;;7388468;19;20003;-68
2023/08/14 09:59:55;;;;;;;10.55;3.05;;;;;;;;;;7365959;19;20053;-68
2023/08/14 10:02:25;;;;;;;5.72;2.47;;;;;;;;;;7365953;19;20011;-69
2023/08/14 10:04:51;;;;;;;6.50;2.70;;;;;;;;;;7362912;19;20014;-68
2023/08/14 10:07:18;;;;;;;5.85;2.40;;;;;;;;;;7371056;19;20017;-69
2023/08/14 10:09:48;;;;;;;5.53;2.92;;;;;;;;;;7372506;19;20011;-68
2023/08/14 10:12:16;;;;;;;7.50;2.97;;;;;;;;;;7394950;19;20003;-68
2023/08/14 10:14:45;;;;;;;6.28;2.90;;;;;;;;;;7368938;19;20007;-68
2023/08/14 10:17:18;;;;;;;6.95;2.55;;;;;;;;;;7371181;19;20015;-68
2023/08/14 10:19:45;;;;;;;5.45;2.63;;;;;;;;;;7370842;19;20010;-68
2023/08/14 10:22:10;;;;;;;8.10;2.50;;;;;;;;;;7371502;19;20361;-68
2023/08/14 10:24:37;;;;;;;6.85;2.63;;;;;;;;;;7391350;19;20006;-70
2023/08/14 10:27:04;;;;;;;5.65;2.83;;;;;;;;;;7369902;19;20007;-69
2023/08/14 10:29:30;;;;;;;7.45;2.88;;;;;;;;;;7369379;19;20035;-68
2023/08/14 10:31:56;;;;;;;5.40;2.78;;;;;;;;;;7372338;19;20006;-69
2023/08/14 10:34:23;;;;;;;6.07;2.65;;;;;;;;;;7371683;19;20472;-70
2023/08/14 10:36:50;;;;;;;7.63;3.08;;;;;;;;;;7372938;19;19998;-69
2023/08/14 10:39:16;;;;;;;8.65;3.47;;;;;;;;;;7395098;19;20002;-69
2023/08/14 10:41:41;;;;;;;6.32;3.00;;;;;;;;;;7372138;19;20076;-69
2023/08/14 10:44:09;;;;;;;6.70;2.63;;;;;;;;;;7372298;19;20007;-69
2023/08/14 10:46:41;;;;;;;5.38;2.88;;;;;;;;;;7373450;19;20967;-69
2023/08/14 10:49:10;;;;;;;6.68;3.10;;;;;;;;;;7372741;19;20066;-69
2023/08/14 10:51:40;;;;;;;5.97;2.95;;;;;;;;;;7393803;19;20496;-70
2023/08/14 10:54:13;;;;;;;5.50;2.70;;;;;;;;;;7370990;19;20010;-69
2023/08/14 10:56:43;;;;;;;5.88;3.30;;;;;;;;;;7372453;19;20006;-70
2023/08/14 10:59:28;;;;;;;5.00;2.83;;;;;;;;;;7371726;19;20767;-70
2023/08/14 11:02:13;;;;;;;5.82;2.70;;;;;;;;;;7372650;19;20075;-70
2023/08/14 11:05:00;;;;;;;7.72;2.90;;;;;;;;;;7371463;19;20006;-69
2023/08/14 11:07:32;;;;;;;5.53;2.53;;;;;;;;;;7372057;19;20006;-70
2023/08/14 11:09:57;;;;;;;7.18;2.80;;;;;;;;;;7371166;19;20002;-71
2023/08/14 11:12:23;;;;;;;5.53;2.60;;;;;;;;;;7393635;19;20038;-71
2023/08/14 11:14:49;;;;;;;5.85;2.42;;;;;;;;;;7369497;19;20006;-70
2023/08/14 11:17:14;;;;;;;5.85;2.53;;;;;;;;;;7372198;19;20005;-70
2023/08/14 11:19:39;;;;;;;5.05;2.58;;;;;;;;;;7370551;19;20006;-70
2023/08/14 11:22:05;;;;;;;3.97;2.47;;;;;;;;;;7371633;19;20054;-72
2023/08/14 11:24:32;;;;;;;5.90;2.40;;;;;;;;;;7391327;19;20010;-69
2023/08/14 11:26:58;;;;;;;8.40;2.83;;;;;;;;;;7371732;19;20452;-70
2023/08/14 11:29:24;;;;;;;5.47;2.90;;;;;;;;;;7370308;19;20010;-70
2023/08/14 11:31:49;;;;;;;6.53;2.47;;;;;;;;;;7371493;19;20354;-70
2023/08/14 11:34:15;;;;;;;5.97;2.53;;;;;;;;;;7370010;19;20394;-71
2023/08/14 11:36:51;;;;;;;5.07;2.47;;;;;;;;;;7371557;19;20066;-71
2023/08/14 11:39:16;;;;;;;3.72;2.17;;;;;;;;;;7390847;19;20019;-72
2023/08/14 11:41:41;;;;;;;4.57;2.17;;;;;;;;;;7371045;19;20022;-72
2023/08/14 11:44:07;;;;;;;5.67;2.37;;;;;;;;;;7370615;19;20007;-72
2023/08/14 11:46:32;;;;;;;6.28;2.33;;;;;;;;;;7370932;19;20792;-72
2023/08/14 11:48:58;;;;;;;3.95;2.08;;;;;;;;;;7370728;19;20110;-72
2023/08/14 11:51:24;;;;;;;5.50;2.30;;;;;;;;;;7393171;19;20740;-72
2023/08/14 11:53:50;;;;;;;5.72;2.30;;;;;;;;;;7367706;19;20010;-72
2023/08/14 11:56:15;;;;;;;5.00;2.40;;;;;;;;;;7370155;19;20073;-72
2023/08/14 11:58:40;;;;;;;6.40;2.50;;;;;;;;;;7370370;19;20480;-72
2023/08/14 12:01:07;;;;;;;5.55;2.40;;;;;;;;;;7370277;19;20006;-72
2023/08/14 12:03:33;;;;;;;4.95;2.55;;;;;;;;;;7391851;19;20023;-72
2023/08/14 12:06:03;;;;;;;5.43;2.53;;;;;;;;;;7369917;19;20002;-72
2023/08/14 12:08:30;;;;;;;4.07;2.20;;;;;;;;;;7369347;19;20006;-71
2023/08/14 12:10:56;;;;;;;4.25;2.40;;;;;;;;;;7369611;19;20045;-72
2023/08/14 12:13:21;;;;;;;4.97;2.00;;;;;;;;;;7370805;19;20357;-72
2023/08/14 12:15:47;;;;;;;5.10;2.67;;;;;;;;;;7371271;19;20066;-71
2023/08/14 12:18:12;;;;;;;28.15;3.20;;;;;;;;;;7403756;19;19999;-71
2023/08/14 12:20:38;;;;;;;5.70;2.80;;;;;;;;;;7388900;19;20534;-72
2023/08/14 12:23:14;;;;;;;6.55;2.40;;;;;;;;;;7385145;19;20039;-71
2023/08/14 12:25:39;;;;;;;7.32;2.55;;;;;;;;;;7372656;19;20006;-71
2023/08/14 12:28:05;;;;;;;12.55;2.92;;;;;;;;;;7371754;19;20038;-71
2023/08/14 12:30:30;;;;;;;4.47;2.33;;;;;;;;;;7388150;19;20010;-72
2023/08/14 12:32:57;;;;;;;5.03;2.70;;;;;;;;;;7370177;19;20010;-72
2023/08/14 12:35:22;;;;;;;5.50;2.20;;;;;;;;;;7367852;19;20239;-72
2023/08/14 12:37:48;;;;;;;5.20;2.47;;;;;;;;;;7369633;19;20518;-72
2023/08/14 12:40:13;;;;;;;3.45;2.20;;;;;;;;;;7369718;19;20006;-72
2023/08/14 12:42:39;;;;;;;6.18;2.97;;;;;;;;;;7384362;19;19995;-72
2023/08/14 12:45:05;;;;;;;5.70;2.55;;;;;;;;;;7382316;19;20006;-72
2023/08/14 12:47:31;;;;;;;4.85;2.50;;;;;;;;;;7369078;19;20403;-71
2023/08/14 12:49:56;;;;;;;5.55;2.50;;;;;;;;;;7368258;19;20043;-71
2023/08/14 12:52:22;;;;;;;5.32;2.38;;;;;;;;;;7369179;19;20015;-71
2023/08/14 12:54:47;;;;;;;5.25;2.35;;;;;;;;;;7367736;19;20465;-71
2023/08/14 12:57:15;;;;;;;6.00;2.88;;;;;;;;;;7390665;19;20006;-71
2023/08/14 12:59:40;;;;;;;5.18;2.25;;;;;;;;;;7369358;19;20014;-72
2023/08/14 13:02:06;;;;;;;4.82;2.38;;;;;;;;;;7368759;19;20054;-72
2023/08/14 13:04:31;;;;;;;8.38;2.30;;;;;;;;;;7367927;19;20006;-72
2023/08/14 13:06:57;;;;;;;6.15;2.45;;;;;;;;;;7368961;19;20003;-72
2023/08/14 13:09:22;;;;;;;6.63;2.38;;;;;;;;;;7388768;19;20002;-72
2023/08/14 13:11:48;;;;;;;7.55;2.28;;;;;;;;;;7368104;19;20006;-72
2023/08/14 13:14:13;;;;;;;6.68;2.70;;;;;;;;;;7367296;19;20010;-72
2023/08/14 13:16:38;;;;;;;5.30;2.28;;;;;;;;;;7368522;19;20111;-72
2023/08/14 13:19:03;;;;;;;6.13;2.65;;;;;;;;;;7367181;19;20099;-71
2023/08/14 13:21:29;;;;;;;5.45;2.50;;;;;;;;;;7389190;19;20472;-72
2023/08/14 13:23:54;;;;;;;6.05;2.60;;;;;;;;;;7366001;19;20092;-72
2023/08/14 13:26:20;;;;;;;5.63;2.45;;;;;;;;;;7367281;19;20007;-71
2023/08/14 13:28:45;;;;;;;7.10;2.60;;;;;;;;;;7369573;19;20002;-71
2023/08/14 13:31:10;;;;;;;5.03;2.38;;;;;;;;;;7366705;19;20046;-72
2023/08/14 13:33:36;;;;;;;6.18;2.72;;;;;;;;;;7388748;19;20018;-72
2023/08/14 13:36:03;;;;;;;5.13;2.58;;;;;;;;;;7366508;19;20014;-72
2023/08/14 13:38:28;;;;;;;6.07;2.20;;;;;;;;;;7340036;19;20007;-72
2023/08/14 13:40:54;;;;;;;6.75;2.60;;;;;;;;;;7359031;19;20006;-72
2023/08/14 13:43:19;;;;;;;5.53;2.22;;;;;;;;;;7371270;19;20010;-72
2023/08/14 13:45:44;;;;;;;5.30;2.65;;;;;;;;;;7374378;19;20010;-74
2023/08/14 13:48:10;;;;;;;7.25;2.65;;;;;;;;;;7374441;19;20005;-72
2023/08/14 13:50:36;;;;;;;6.28;2.40;;;;;;;;;;7395087;19;20870;-72
2023/08/14 13:53:02;;;;;;;6.43;2.50;;;;;;;;;;7374193;19;20011;-71
2023/08/14 13:55:28;;;;;;;6.40;2.42;;;;;;;;;;7372733;19;20003;-71
2023/08/14 13:57:53;;;;;;;8.00;3.00;;;;;;;;;;7371638;19;20492;-71
2023/08/14 14:00:19;;;;;;;5.28;2.58;;;;;;;;;;7373988;19;19998;-71
2023/08/14 14:02:44;;;;;;;6.18;2.63;;;;;;;;;;7397000;19;19995;-71
2023/08/14 14:05:11;;;;;;;8.45;2.60;;;;;;;;;;7372103;19;20024;-72
2023/08/14 14:07:36;;;;;;;4.20;2.40;;;;;;;;;;7374667;19;20006;-71
2023/08/14 14:10:02;;;;;;;6.22;2.75;;;;;;;;;;7375022;19;20016;-72
2023/08/14 14:12:28;;;;;;;5.97;2.70;;;;;;;;;;7374258;19;20483;-72
2023/08/14 14:14:53;;;;;;;5.10;2.45;;;;;;;;;;7392604;19;20022;-71
2023/08/14 14:17:19;;;;;;;6.95;2.53;;;;;;;;;;7374036;19;20030;-72
2023/08/14 14:19:44;;;;;;;4.82;2.30;;;;;;;;;;7373437;19;20034;-72
2023/08/14 14:22:09;;;;;;;5.60;2.30;;;;;;;;;;7373657;19;20010;-73
2023/08/14 14:24:35;;;;;;;6.10;2.47;;;;;;;;;;7372088;19;20010;-72
2023/08/14 14:27:00;;;;;;;4.65;2.22;;;;;;;;;;7395370;19;20010;-72
2023/08/14 14:29:26;;;;;;;4.13;2.28;;;;;;;;;;7372145;19;20015;-72
2023/08/14 14:31:54;;;;;;;4.63;2.40;;;;;;;;;;7373324;19;20014;-71
2023/08/14 14:34:19;;;;;;;4.43;2.30;;;;;;;;;;7370764;19;20019;-71